Time,TemperatureF,DewpointF,PressureIn,WindDirection,WindDirectionDegrees,WindSpeedMPH,WindSpeedGustMPH,Humidity,HourlyPrecipIn,Conditions,Clouds,dailyrainin,SoftwareType,DateUTC
2013-07-08 00:01:00,77.1,73.9,30.38,West,270,0.0,0.0,90,0.00,,,0.00,WUHU21623XXSP,2013-07-08 04:01:00,
2013-07-08 00:02:00,77.1,73.9,30.38,West,270,0.0,0.0,90,0.00,,,0.00,WUHU21623XXSP,2013-07-08 04:02:00,
2013-07-08 00:07:00,77.1,74.3,30.38,West,270,0.0,0.0,91,0.00,,,0.00,WUHU21623XXSP,2013-07-08 04:07:00,
2013-07-08 00:12:00,77.1,74.3,30.38,West,270,0.0,0.0,91,0.00,,,0.00,WUHU21623XXSP,2013-07-08 04:12:00,
2013-07-08 00:17:00,77.1,74.3,30.38,West,270,0.0,0.0,91,0.00,,,0.00,WUHU21623XXSP,2013-07-08 04:17:00,
2013-07-08 00:22:00,77.1,74.3,30.38,West,270,0.0,0.0,91,0.00,,,0.00,WUHU21623XXSP,2013-07-08 04:22:00,
2013-07-08 00:27:00,77.1,74.3,30.38,West,270,0.0,0.0,91,0.00,,,0.00,WUHU21623XXSP,2013-07-08 04:27:00,
2013-07-08 00:32:00,77.1,74.3,30.38,NW,315,0.0,0.0,91,0.00,,,0.00,WUHU21623XXSP,2013-07-08 04:32:00,
2013-07-08 00:37:00,77.1,74.3,30.38,NW,315,0.0,0.0,91,0.00,,,0.00,WUHU21623XXSP,2013-07-08 04:37:00,
2013-07-08 00:42:00,77.1,74.3,30.38,NW,315,0.0,0.0,91,0.00,,,0.00,WUHU21623XXSP,2013-07-08 04:42:00,
2013-07-08 00:47:00,77.1,74.3,30.38,East,90,0.0,0.0,91,0.00,,,0.00,WUHU21623XXSP,2013-07-08 04:47:00,
2013-07-08 00:52:00,77.4,74.6,30.38,ESE,112,0.0,0.0,91,0.00,,,0.00,WUHU21623XXSP,2013-07-08 04:52:00,
2013-07-08 00:57:00,77.4,74.6,30.38,SE,135,0.0,0.0,91,0.00,,,0.00,WUHU21623XXSP,2013-07-08 04:57:00,
2013-07-08 01:02:00,77.6,74.4,30.38,East,90,0.0,0.0,90,0.00,,,0.00,WUHU21623XXSP,2013-07-08 05:02:00,
2013-07-08 01:07:00,77.6,74.4,30.38,ESE,112,0.0,0.0,90,0.00,,,0.00,WUHU21623XXSP,2013-07-08 05:07:00,
2013-07-08 01:12:00,77.6,74.4,30.38,ESE,112,0.0,0.0,90,0.00,,,0.00,WUHU21623XXSP,2013-07-08 05:12:00,
2013-07-08 01:17:00,78.0,74.5,30.38,ESE,112,0.0,0.0,89,0.00,,,0.00,WUHU21623XXSP,2013-07-08 05:17:00,
2013-07-08 01:22:00,78.0,74.5,30.38,SE,135,0.0,0.0,89,0.00,,,0.00,WUHU21623XXSP,2013-07-08 05:22:00,
2013-07-08 01:27:00,78.2,74.4,30.37,ESE,112,0.0,0.0,88,0.00,,,0.00,WUHU21623XXSP,2013-07-08 05:27:00,
2013-07-08 01:32:00,78.2,74.4,30.37,SE,135,0.0,0.0,88,0.00,,,0.00,WUHU21623XXSP,2013-07-08 05:32:00,
2013-07-08 01:37:00,78.3,74.5,30.37,ESE,112,0.0,0.0,88,0.00,,,0.00,WUHU21623XXSP,2013-07-08 05:37:00,
2013-07-08 01:42:00,78.3,74.5,30.37,ESE,112,0.0,0.0,88,0.00,,,0.00,WUHU21623XXSP,2013-07-08 05:42:00,
2013-07-08 01:47:00,78.3,74.1,30.37,ESE,112,0.0,0.0,87,0.00,,,0.00,WUHU21623XXSP,2013-07-08 05:47:00,
2013-07-08 01:52:00,78.3,74.1,30.36,ESE,112,0.0,0.0,87,0.00,,,0.00,WUHU21623XXSP,2013-07-08 05:52:00,
2013-07-08 01:57:00,78.3,74.1,30.36,ESE,112,0.0,0.0,87,0.00,,,0.00,WUHU21623XXSP,2013-07-08 05:57:00,
2013-07-08 02:02:00,78.5,74.3,30.36,ENE,67,0.0,0.0,87,0.00,,,0.00,WUHU21623XXSP,2013-07-08 06:02:00,
2013-07-08 02:07:00,78.3,74.1,30.37,ESE,112,0.0,0.0,87,0.00,,,0.00,WUHU21623XXSP,2013-07-08 06:07:00,
2013-07-08 02:12:00,78.3,74.1,30.37,SE,135,0.0,0.0,87,0.00,,,0.00,WUHU21623XXSP,2013-07-08 06:12:00,
2013-07-08 02:17:00,78.3,74.1,30.37,ESE,112,0.0,0.0,87,0.00,,,0.00,WUHU21623XXSP,2013-07-08 06:17:00,
2013-07-08 02:22:00,78.2,74.0,30.37,ESE,112,0.0,0.0,87,0.00,,,0.00,WUHU21623XXSP,2013-07-08 06:22:00,
2013-07-08 02:27:00,78.0,73.8,30.37,ESE,112,0.0,0.0,87,0.00,,,0.00,WUHU21623XXSP,2013-07-08 06:27:00,
2013-07-08 02:32:00,78.0,73.8,30.36,ESE,112,0.0,0.0,87,0.00,,,0.00,WUHU21623XXSP,2013-07-08 06:32:00,
2013-07-08 02:37:00,78.0,74.2,30.36,ESE,112,0.0,0.0,88,0.00,,,0.00,WUHU21623XXSP,2013-07-08 06:37:00,
2013-07-08 02:42:00,78.0,74.2,30.36,ESE,112,0.0,0.0,88,0.00,,,0.00,WUHU21623XXSP,2013-07-08 06:42:00,
2013-07-08 02:47:00,77.6,73.8,30.35,ESE,112,0.0,0.0,88,0.00,,,0.00,WUHU21623XXSP,2013-07-08 06:47:00,
2013-07-08 02:52:00,77.6,73.8,30.35,SE,135,0.0,0.0,88,0.00,,,0.00,WUHU21623XXSP,2013-07-08 06:52:00,
2013-07-08 02:57:00,77.6,73.8,30.35,SE,135,0.0,0.0,88,0.00,,,0.00,WUHU21623XXSP,2013-07-08 06:57:00,
2013-07-08 03:02:00,77.6,73.8,30.35,South,180,0.0,0.0,88,0.00,,,0.00,WUHU21623XXSP,2013-07-08 07:02:00,
2013-07-08 03:07:00,77.6,73.8,30.36,SE,135,0.0,0.0,88,0.00,,,0.00,WUHU21623XXSP,2013-07-08 07:07:00,
2013-07-08 03:12:00,77.6,73.8,30.35,SE,135,0.0,0.0,88,0.00,,,0.00,WUHU21623XXSP,2013-07-08 07:12:00,
2013-07-08 03:17:00,77.6,73.8,30.35,ESE,112,0.0,0.0,88,0.00,,,0.00,WUHU21623XXSP,2013-07-08 07:17:00,
2013-07-08 03:22:00,77.6,73.8,30.35,SE,135,0.0,0.0,88,0.00,,,0.00,WUHU21623XXSP,2013-07-08 07:22:00,
2013-07-08 03:27:00,77.6,73.8,30.35,SE,135,0.0,0.0,88,0.00,,,0.00,WUHU21623XXSP,2013-07-08 07:27:00,
2013-07-08 03:32:00,77.6,73.8,30.35,SE,135,0.0,0.0,88,0.00,,,0.00,WUHU21623XXSP,2013-07-08 07:32:00,
2013-07-08 03:37:00,77.4,73.6,30.35,SE,135,0.0,0.0,88,0.00,,,0.00,WUHU21623XXSP,2013-07-08 07:37:00,
2013-07-08 03:42:00,77.4,73.6,30.35,SE,135,0.0,0.0,88,0.00,,,0.00,WUHU21623XXSP,2013-07-08 07:42:00,
2013-07-08 03:47:00,77.3,73.5,30.35,SE,135,0.0,0.0,88,0.00,,,0.00,WUHU21623XXSP,2013-07-08 07:47:00,
2013-07-08 03:52:00,77.3,73.5,30.35,SE,135,0.0,0.0,88,0.00,,,0.00,WUHU21623XXSP,2013-07-08 07:52:00,
2013-07-08 03:57:00,77.1,73.3,30.35,SE,135,0.0,0.0,88,0.00,,,0.00,WUHU21623XXSP,2013-07-08 07:57:00,
2013-07-08 04:02:00,77.1,73.3,30.35,SE,135,0.0,0.0,88,0.00,,,0.00,WUHU21623XXSP,2013-07-08 08:02:00,
2013-07-08 04:07:00,77.1,73.6,30.35,SE,135,0.0,0.0,89,0.00,,,0.00,WUHU21623XXSP,2013-07-08 08:07:00,
2013-07-08 04:12:00,76.9,73.4,30.35,SE,135,0.0,0.0,89,0.00,,,0.00,WUHU21623XXSP,2013-07-08 08:12:00,
2013-07-08 04:17:00,76.9,73.4,30.35,SE,135,0.0,0.0,89,0.00,,,0.00,WUHU21623XXSP,2013-07-08 08:17:00,
2013-07-08 04:22:00,76.9,73.4,30.34,ESE,112,0.0,0.0,89,0.00,,,0.00,WUHU21623XXSP,2013-07-08 08:22:00,
2013-07-08 04:27:00,76.9,73.4,30.34,ESE,112,0.0,0.0,89,0.00,,,0.00,WUHU21623XXSP,2013-07-08 08:27:00,
2013-07-08 04:32:00,77.1,73.9,30.34,ESE,112,0.0,0.0,90,0.00,,,0.00,WUHU21623XXSP,2013-07-08 08:32:00,
2013-07-08 04:37:00,77.1,73.9,30.34,ESE,112,0.0,0.0,90,0.00,,,0.00,WUHU21623XXSP,2013-07-08 08:37:00,
2013-07-08 04:42:00,77.3,74.1,30.34,ESE,112,0.0,0.0,90,0.00,,,0.00,WUHU21623XXSP,2013-07-08 08:42:00,
2013-07-08 04:47:00,77.4,74.2,30.34,ESE,112,0.0,0.0,90,0.00,,,0.00,WUHU21623XXSP,2013-07-08 08:47:00,
2013-07-08 04:52:00,77.4,74.2,30.34,ESE,112,0.0,0.0,90,0.00,,,0.00,WUHU21623XXSP,2013-07-08 08:52:00,
2013-07-08 04:57:00,77.4,74.2,30.34,ESE,112,0.0,0.0,90,0.00,,,0.00,WUHU21623XXSP,2013-07-08 08:57:00,
2013-07-08 05:02:00,77.4,73.9,30.34,ENE,67,0.0,0.0,89,0.00,,,0.00,WUHU21623XXSP,2013-07-08 09:02:00,
2013-07-08 05:07:00,77.4,73.9,30.34,ENE,67,0.0,0.0,89,0.00,,,0.00,WUHU21623XXSP,2013-07-08 09:07:00,
2013-07-08 05:12:00,77.6,74.1,30.34,ESE,112,0.0,0.0,89,0.00,,,0.00,WUHU21623XXSP,2013-07-08 09:12:00,
2013-07-08 05:17:00,77.4,73.9,30.34,ESE,112,0.0,0.0,89,0.00,,,0.00,WUHU21623XXSP,2013-07-08 09:17:00,
2013-07-08 05:22:00,77.4,74.2,30.34,ESE,112,0.0,0.0,90,0.00,,,0.00,WUHU21623XXSP,2013-07-08 09:22:00,
2013-07-08 05:27:00,77.4,74.2,30.34,ESE,112,0.0,0.0,90,0.00,,,0.00,WUHU21623XXSP,2013-07-08 09:27:00,
2013-07-08 05:32:00,77.6,74.4,30.34,ESE,112,0.0,0.0,90,0.00,,,0.00,WUHU21623XXSP,2013-07-08 09:32:00,
2013-07-08 05:37:00,77.6,74.4,30.34,ESE,112,0.0,0.0,90,0.00,,,0.00,WUHU21623XXSP,2013-07-08 09:37:00,
2013-07-08 05:42:00,77.4,74.2,30.34,East,90,0.0,0.0,90,0.00,,,0.00,WUHU21623XXSP,2013-07-08 09:42:00,
2013-07-08 05:47:00,77.4,74.2,30.34,ESE,112,0.0,0.0,90,0.00,,,0.00,WUHU21623XXSP,2013-07-08 09:47:00,
2013-07-08 05:52:00,77.4,74.2,30.34,ENE,67,0.0,0.0,90,0.00,,,0.00,WUHU21623XXSP,2013-07-08 09:52:00,
2013-07-08 05:57:00,77.4,74.2,30.34,ESE,112,0.0,0.0,90,0.00,,,0.00,WUHU21623XXSP,2013-07-08 09:57:00,
2013-07-08 06:02:00,77.4,74.2,30.34,ENE,67,0.0,0.0,90,0.00,,,0.00,WUHU21623XXSP,2013-07-08 10:02:00,
2013-07-08 06:07:00,77.4,74.2,30.34,ESE,112,0.0,0.0,90,0.00,,,0.00,WUHU21623XXSP,2013-07-08 10:07:00,
2013-07-08 06:12:00,77.4,74.2,30.34,ESE,112,0.0,0.0,90,0.00,,,0.00,WUHU21623XXSP,2013-07-08 10:12:00,
2013-07-08 06:17:00,77.4,74.2,30.35,ESE,112,0.0,0.0,90,0.00,,,0.00,WUHU21623XXSP,2013-07-08 10:17:00,
2013-07-08 06:22:00,77.4,74.2,30.35,ESE,112,0.0,0.0,90,0.00,,,0.00,WUHU21623XXSP,2013-07-08 10:22:00,
2013-07-08 06:27:00,77.3,74.1,30.35,ESE,112,0.0,0.0,90,0.00,,,0.00,WUHU21623XXSP,2013-07-08 10:27:00,
2013-07-08 06:32:00,77.1,74.3,30.35,ESE,112,0.0,0.0,91,0.00,,,0.00,WUHU21623XXSP,2013-07-08 10:32:00,
2013-07-08 06:37:00,77.1,74.3,30.36,ESE,112,0.0,0.0,91,0.00,,,0.00,WUHU21623XXSP,2013-07-08 10:37:00,
2013-07-08 06:42:00,77.3,74.5,30.36,ESE,112,0.0,0.0,91,0.00,,,0.00,WUHU21623XXSP,2013-07-08 10:42:00,
2013-07-08 06:47:00,77.4,74.6,30.36,ENE,67,0.0,0.0,91,0.00,,,0.00,WUHU21623XXSP,2013-07-08 10:47:00,
2013-07-08 06:52:00,77.4,74.6,30.36,ESE,112,0.0,0.0,91,0.00,,,0.00,WUHU21623XXSP,2013-07-08 10:52:00,
2013-07-08 06:57:00,77.4,74.6,30.36,ESE,112,0.0,0.0,91,0.00,,,0.00,WUHU21623XXSP,2013-07-08 10:57:00,
2013-07-08 07:02:00,77.4,74.6,30.36,ESE,112,0.0,0.0,91,0.00,,,0.00,WUHU21623XXSP,2013-07-08 11:02:00,
2013-07-08 07:07:00,77.6,74.7,30.36,East,90,0.0,0.0,91,0.00,,,0.00,WUHU21623XXSP,2013-07-08 11:07:00,
2013-07-08 07:12:00,77.6,74.4,30.36,ESE,112,0.0,0.0,90,0.00,,,0.00,WUHU21623XXSP,2013-07-08 11:12:00,
2013-07-08 07:17:00,77.6,74.4,30.36,ESE,112,0.0,0.0,90,0.00,,,0.00,WUHU21623XXSP,2013-07-08 11:17:00,
2013-07-08 07:22:00,78.0,74.8,30.36,SE,135,0.0,0.0,90,0.00,,,0.00,WUHU21623XXSP,2013-07-08 11:22:00,
2013-07-08 07:27:00,78.9,75.7,30.36,ENE,67,0.0,0.0,90,0.00,,,0.00,WUHU21623XXSP,2013-07-08 11:27:00,
2013-07-08 07:32:00,80.1,76.2,30.36,ESE,112,0.0,0.0,88,0.00,,,0.00,WUHU21623XXSP,2013-07-08 11:32:00,
2013-07-08 07:37:00,80.3,76.1,30.36,ESE,112,0.0,0.0,87,0.00,,,0.00,WUHU21623XXSP,2013-07-08 11:37:00,
2013-07-08 07:42:00,80.7,76.5,30.36,ESE,112,0.0,0.0,87,0.00,,,0.00,WUHU21623XXSP,2013-07-08 11:42:00,
2013-07-08 07:47:00,82.3,77.4,30.36,ESE,112,0.0,0.0,85,0.00,,,0.00,WUHU21623XXSP,2013-07-08 11:47:00,
2013-07-08 07:52:00,83.7,78.1,30.37,ESE,112,0.0,0.0,83,0.00,,,0.00,WUHU21623XXSP,2013-07-08 11:52:00,
2013-07-08 07:57:00,84.3,77.9,30.36,ENE,67,0.0,0.0,81,0.00,,,0.00,WUHU21623XXSP,2013-07-08 11:57:00,
2013-07-08 08:02:00,84.8,77.7,30.37,ESE,112,0.0,0.0,79,0.00,,,0.00,WUHU21623XXSP,2013-07-08 12:02:00,
2013-07-08 08:07:00,85.0,77.5,30.37,NE,45,0.0,0.0,78,0.00,,,0.00,WUHU21623XXSP,2013-07-08 12:07:00,
2013-07-08 08:12:00,85.2,77.7,30.37,ENE,67,0.0,0.0,78,0.00,,,0.00,WUHU21623XXSP,2013-07-08 12:12:00,
2013-07-08 08:17:00,85.2,77.3,30.37,ENE,67,0.0,0.0,77,0.00,,,0.00,WUHU21623XXSP,2013-07-08 12:17:00,
2013-07-08 08:18:00,85.2,77.3,30.37,ESE,112,0.0,0.0,77,0.00,,,0.00,WUHU21623XXSP,2013-07-08 12:18:00,
2013-07-08 08:23:00,85.2,77.7,30.37,SE,135,0.0,0.0,78,0.00,,,0.00,WUHU21623XXSP,2013-07-08 12:23:00,
2013-07-08 08:28:00,85.2,77.3,30.37,ESE,112,0.0,0.0,77,0.00,,,0.00,WUHU21623XXSP,2013-07-08 12:28:00,
2013-07-08 08:33:00,85.2,77.3,30.37,ESE,112,0.0,0.0,77,0.00,,,0.00,WUHU21623XXSP,2013-07-08 12:33:00,
2013-07-08 08:38:00,85.2,77.3,30.37,ESE,112,0.0,0.0,77,0.00,,,0.00,WUHU21623XXSP,2013-07-08 12:38:00,
2013-07-08 08:43:00,85.5,77.3,30.37,ESE,112,0.0,0.0,76,0.00,,,0.00,WUHU21623XXSP,2013-07-08 12:43:00,
2013-07-08 08:48:00,85.5,77.3,30.37,ESE,112,0.0,0.0,76,0.00,,,0.00,WUHU21623XXSP,2013-07-08 12:48:00,
2013-07-08 08:53:00,85.5,77.3,30.38,East,90,0.0,0.0,76,0.00,,,0.00,WUHU21623XXSP,2013-07-08 12:53:00,
2013-07-08 08:58:00,85.7,77.1,30.38,ENE,67,0.0,0.0,75,0.00,,,0.00,WUHU21623XXSP,2013-07-08 12:58:00,
2013-07-08 09:03:00,85.9,77.3,30.38,ESE,112,0.0,0.0,75,0.00,,,0.00,WUHU21623XXSP,2013-07-08 13:03:00,
2013-07-08 09:08:00,86.1,77.1,30.38,SE,135,0.0,0.0,74,0.00,,,0.00,WUHU21623XXSP,2013-07-08 13:08:00,
2013-07-08 09:13:00,86.3,77.3,30.38,East,90,0.0,0.0,74,0.00,,,0.00,WUHU21623XXSP,2013-07-08 13:13:00,
2013-07-08 09:18:00,86.3,76.9,30.38,ESE,112,0.0,0.0,73,0.00,,,0.00,WUHU21623XXSP,2013-07-08 13:18:00,
2013-07-08 09:23:00,86.4,76.5,30.39,NE,45,0.0,0.0,72,0.00,,,0.00,WUHU21623XXSP,2013-07-08 13:23:00,
2013-07-08 09:28:00,87.0,77.1,30.39,ENE,67,0.0,0.0,72,0.00,,,0.00,WUHU21623XXSP,2013-07-08 13:28:00,
2013-07-08 09:33:00,87.0,76.7,30.39,ENE,67,0.0,0.0,71,0.00,,,0.00,WUHU21623XXSP,2013-07-08 13:33:00,
2013-07-08 09:38:00,87.3,76.6,30.40,ESE,112,0.0,0.0,70,0.00,,,0.00,WUHU21623XXSP,2013-07-08 13:38:00,
2013-07-08 09:43:00,87.3,76.6,30.39,ESE,112,0.0,0.0,70,0.00,,,0.00,WUHU21623XXSP,2013-07-08 13:43:00,
2013-07-08 09:48:00,87.5,76.8,30.40,NE,45,0.0,0.0,70,0.00,,,0.00,WUHU21623XXSP,2013-07-08 13:48:00,
2013-07-08 09:53:00,88.2,77.4,30.40,ENE,67,0.0,0.0,70,0.00,,,0.00,WUHU21623XXSP,2013-07-08 13:53:00,
2013-07-08 09:58:00,88.8,77.6,30.40,ENE,67,0.0,0.0,69,0.00,,,0.00,WUHU21623XXSP,2013-07-08 13:58:00,
2013-07-08 10:03:00,89.1,77.0,30.40,SE,135,0.0,0.0,67,0.00,,,0.00,WUHU21623XXSP,2013-07-08 14:03:00,
2013-07-08 10:08:00,88.8,76.3,30.40,NE,45,0.0,0.0,66,0.00,,,0.00,WUHU21623XXSP,2013-07-08 14:08:00,
2013-07-08 10:13:00,88.8,76.3,30.40,ENE,67,0.0,0.0,66,0.00,,,0.00,WUHU21623XXSP,2013-07-08 14:13:00,
2013-07-08 10:18:00,88.8,76.3,30.40,East,90,0.0,0.0,66,0.00,,,0.00,WUHU21623XXSP,2013-07-08 14:18:00,
2013-07-08 10:23:00,89.1,77.0,30.40,ENE,67,0.0,0.0,67,0.00,,,0.00,WUHU21623XXSP,2013-07-08 14:23:00,
2013-07-08 10:28:00,89.5,76.9,30.40,ENE,67,0.0,0.0,66,0.00,,,0.00,WUHU21623XXSP,2013-07-08 14:28:00,
2013-07-08 10:33:00,89.7,76.7,30.40,NE,45,0.0,0.0,65,0.00,,,0.00,WUHU21623XXSP,2013-07-08 14:33:00,
2013-07-08 10:38:00,89.7,76.7,30.41,SE,135,0.0,0.0,65,0.00,,,0.00,WUHU21623XXSP,2013-07-08 14:38:00,
2013-07-08 10:43:00,90.2,77.1,30.40,SSE,157,0.0,0.0,65,0.00,,,0.00,WUHU21623XXSP,2013-07-08 14:43:00,
2013-07-08 10:48:00,90.8,76.8,30.40,ESE,112,0.0,0.0,63,0.00,,,0.00,WUHU21623XXSP,2013-07-08 14:48:00,
2013-07-08 10:53:00,90.9,76.4,30.41,ENE,67,0.0,0.0,62,0.00,,,0.00,WUHU21623XXSP,2013-07-08 14:53:00,
2013-07-08 10:58:00,91.1,77.1,30.41,ESE,112,0.0,0.0,63,0.00,,,0.00,WUHU21623XXSP,2013-07-08 14:58:00,
2013-07-08 11:03:00,91.5,77.0,30.40,SSE,157,0.0,0.0,62,0.00,,,0.00,WUHU21623XXSP,2013-07-08 15:03:00,
2013-07-08 11:08:00,91.7,77.1,30.40,SSE,157,0.0,0.0,62,0.00,,,0.00,WUHU21623XXSP,2013-07-08 15:08:00,
2013-07-08 11:13:00,91.8,77.2,30.40,South,180,0.0,0.0,62,0.00,,,0.00,WUHU21623XXSP,2013-07-08 15:13:00,
2013-07-08 11:18:00,92.2,77.1,30.40,ENE,67,0.0,0.0,61,0.00,,,0.00,WUHU21623XXSP,2013-07-08 15:18:00,
2013-07-08 11:23:00,92.2,77.1,30.40,SSE,157,0.0,0.0,61,0.00,,,0.00,WUHU21623XXSP,2013-07-08 15:23:00,
2013-07-08 11:28:00,92.4,76.8,30.40,SSE,157,0.0,0.0,60,0.00,,,0.00,WUHU21623XXSP,2013-07-08 15:28:00,
2013-07-08 11:33:00,92.6,76.5,30.40,ESE,112,0.0,0.0,59,0.00,,,0.00,WUHU21623XXSP,2013-07-08 15:33:00,
2013-07-08 11:38:00,92.4,76.8,30.41,SSE,157,0.0,0.0,60,0.00,,,0.00,WUHU21623XXSP,2013-07-08 15:38:00,
2013-07-08 11:43:00,92.6,76.5,30.41,SSE,157,0.0,0.0,59,0.00,,,0.00,WUHU21623XXSP,2013-07-08 15:43:00,
2013-07-08 11:48:00,92.7,76.6,30.41,ENE,67,0.0,0.0,59,0.00,,,0.00,WUHU21623XXSP,2013-07-08 15:48:00,
2013-07-08 11:53:00,92.7,76.1,30.41,South,180,0.0,0.0,58,0.00,,,0.00,WUHU21623XXSP,2013-07-08 15:53:00,
2013-07-08 11:58:00,92.9,76.8,30.41,SSE,157,0.0,0.0,59,0.00,,,0.00,WUHU21623XXSP,2013-07-08 15:58:00,
2013-07-08 12:03:00,93.6,77.9,30.41,SSE,157,0.0,0.0,60,0.00,,,0.00,WUHU21623XXSP,2013-07-08 16:03:00,
2013-07-08 12:08:00,93.8,77.6,30.41,SE,135,0.0,0.0,59,0.00,,,0.00,WUHU21623XXSP,2013-07-08 16:08:00,
2013-07-08 12:13:00,93.8,77.1,30.40,SE,135,0.0,0.0,58,0.00,,,0.00,WUHU21623XXSP,2013-07-08 16:13:00,
2013-07-08 12:18:00,93.8,77.6,30.41,South,180,0.0,0.0,59,0.00,,,0.00,WUHU21623XXSP,2013-07-08 16:18:00,
2013-07-08 12:23:00,93.8,77.1,30.41,ESE,112,0.0,0.0,58,0.00,,,0.00,WUHU21623XXSP,2013-07-08 16:23:00,
2013-07-08 12:28:00,93.6,76.9,30.41,SSE,157,0.0,0.0,58,0.00,,,0.00,WUHU21623XXSP,2013-07-08 16:28:00,
2013-07-08 12:34:00,93.6,76.4,30.41,SE,135,0.0,0.0,57,0.00,,,0.00,WUHU21623XXSP,2013-07-08 16:34:00,
2013-07-08 12:39:00,93.6,76.4,30.41,SSE,157,0.0,0.0,57,0.00,,,0.00,WUHU21623XXSP,2013-07-08 16:39:00,
2013-07-08 12:44:00,93.6,76.4,30.40,ESE,112,0.0,0.0,57,0.00,,,0.00,WUHU21623XXSP,2013-07-08 16:44:00,
2013-07-08 12:49:00,93.8,77.1,30.40,NE,45,0.0,0.0,58,0.00,,,0.00,WUHU21623XXSP,2013-07-08 16:49:00,
2013-07-08 12:54:00,93.8,76.0,30.40,SE,135,0.0,0.0,56,0.00,,,0.00,WUHU21623XXSP,2013-07-08 16:54:00,
2013-07-08 12:59:00,94.2,76.9,30.40,SSE,157,0.0,0.0,57,0.00,,,0.00,WUHU21623XXSP,2013-07-08 16:59:00,
2013-07-08 13:04:00,94.7,76.9,30.40,ESE,112,0.0,0.0,56,0.00,,,0.00,WUHU21623XXSP,2013-07-08 17:04:00,
2013-07-08 13:09:00,94.7,76.9,30.40,South,180,0.0,0.0,56,0.00,,,0.00,WUHU21623XXSP,2013-07-08 17:09:00,
2013-07-08 13:14:00,95.3,77.4,30.40,SE,135,0.0,0.0,56,0.00,,,0.00,WUHU21623XXSP,2013-07-08 17:14:00,
2013-07-08 13:19:00,95.4,77.5,30.40,SSE,157,0.0,0.0,56,0.00,,,0.00,WUHU21623XXSP,2013-07-08 17:19:00,
2013-07-08 13:25:00,96.0,77.5,30.40,SE,135,0.0,0.0,55,0.00,,,0.00,WUHU21623XXSP,2013-07-08 17:25:00,
2013-07-08 13:30:00,95.6,76.6,30.40,SSE,157,0.0,0.0,54,0.00,,,0.00,WUHU21623XXSP,2013-07-08 17:30:00,
2013-07-08 13:35:00,95.6,76.0,30.40,SE,135,0.0,0.0,53,0.00,,,0.00,WUHU21623XXSP,2013-07-08 17:35:00,
2013-07-08 13:40:00,95.4,75.2,30.39,NNE,22,0.0,0.0,52,0.00,,,0.00,WUHU21623XXSP,2013-07-08 17:40:00,
2013-07-08 13:45:00,95.4,75.2,30.39,ESE,112,0.0,0.0,52,0.00,,,0.00,WUHU21623XXSP,2013-07-08 17:45:00,
2013-07-08 13:50:00,95.6,75.4,30.39,ENE,67,0.0,0.0,52,0.00,,,0.00,WUHU21623XXSP,2013-07-08 17:50:00,
2013-07-08 13:55:00,95.6,74.8,30.40,ESE,112,0.0,0.0,51,0.00,,,0.00,WUHU21623XXSP,2013-07-08 17:55:00,
2013-07-08 14:00:00,95.1,74.4,30.40,NNE,22,0.0,0.0,51,0.00,,,0.00,WUHU21623XXSP,2013-07-08 18:00:00,
2013-07-08 14:06:00,94.7,74.6,30.39,ENE,67,0.0,0.0,52,0.00,,,0.00,WUHU21623XXSP,2013-07-08 18:06:00,
2013-07-08 14:11:00,94.5,75.0,30.39,NE,45,0.0,0.0,53,0.00,,,0.00,WUHU21623XXSP,2013-07-08 18:11:00,
2013-07-08 14:16:00,94.7,74.6,30.39,ESE,112,0.0,0.0,52,0.00,,,0.00,WUHU21623XXSP,2013-07-08 18:16:00,
2013-07-08 14:22:00,94.5,74.4,30.38,ESE,112,0.0,0.0,52,0.00,,,0.00,WUHU21623XXSP,2013-07-08 18:22:00,
2013-07-08 14:27:00,94.4,74.3,30.38,North,0,0.0,0.0,52,0.00,,,0.00,WUHU21623XXSP,2013-07-08 18:27:00,
2013-07-08 14:32:00,94.5,74.4,30.38,NE,45,0.0,0.0,52,0.00,,,0.00,WUHU21623XXSP,2013-07-08 18:32:00,
2013-07-08 14:37:00,94.5,73.8,30.38,ENE,67,0.0,0.0,51,0.00,,,0.00,WUHU21623XXSP,2013-07-08 18:37:00,
2013-07-08 14:42:00,95.1,75.0,30.37,ENE,67,0.0,0.0,52,0.00,,,0.00,WUHU21623XXSP,2013-07-08 18:42:00,
2013-07-08 14:47:00,95.6,74.8,30.37,SE,135,0.0,0.0,51,0.00,,,0.00,WUHU21623XXSP,2013-07-08 18:47:00,
2013-07-08 14:53:00,96.5,76.8,30.37,ESE,112,0.0,0.0,53,0.00,,,0.00,WUHU21623XXSP,2013-07-08 18:53:00,
2013-07-08 14:58:00,97.1,76.8,30.37,NE,45,0.0,0.0,52,0.00,,,0.00,WUHU21623XXSP,2013-07-08 18:58:00,
2013-07-08 15:03:00,96.9,75.4,30.37,SE,135,0.0,0.0,50,0.00,,,0.00,WUHU21623XXSP,2013-07-08 19:03:00,
2013-07-08 15:08:00,96.5,75.0,30.37,ENE,67,0.0,0.0,50,0.00,,,0.00,WUHU21623XXSP,2013-07-08 19:08:00,
2013-07-08 15:14:00,96.2,75.4,30.37,SE,135,0.0,0.0,51,0.00,,,0.00,WUHU21623XXSP,2013-07-08 19:14:00,
2013-07-08 15:19:00,96.2,75.4,30.37,ESE,112,0.0,0.0,51,0.00,,,0.00,WUHU21623XXSP,2013-07-08 19:19:00,
2013-07-08 15:24:00,96.0,74.6,30.37,ESE,112,0.0,0.0,50,0.00,,,0.00,WUHU21623XXSP,2013-07-08 19:24:00,
2013-07-08 15:29:00,95.6,74.2,30.37,SE,135,0.0,0.0,50,0.00,,,0.00,WUHU21623XXSP,2013-07-08 19:29:00,
2013-07-08 15:35:00,95.4,74.0,30.36,East,90,0.0,0.0,50,0.00,,,0.00,WUHU21623XXSP,2013-07-08 19:35:00,
2013-07-08 15:40:00,95.6,74.2,30.36,NE,45,0.0,0.0,50,0.00,,,0.00,WUHU21623XXSP,2013-07-08 19:40:00,
2013-07-08 15:45:00,95.4,73.4,30.36,NE,45,0.0,0.0,49,0.00,,,0.00,WUHU21623XXSP,2013-07-08 19:45:00,
2013-07-08 15:50:00,94.9,73.6,30.35,ENE,67,0.0,0.0,50,0.00,,,0.00,WUHU21623XXSP,2013-07-08 19:50:00,
2013-07-08 15:56:00,94.7,73.4,30.35,NNE,22,0.0,0.0,50,0.00,,,0.00,WUHU21623XXSP,2013-07-08 19:56:00,
2013-07-08 16:01:00,94.7,72.8,30.34,NNE,22,0.0,0.0,49,0.00,,,0.00,WUHU21623XXSP,2013-07-08 20:01:00,
2013-07-08 16:06:00,94.5,72.6,30.34,ENE,67,0.0,0.0,49,0.00,,,0.00,WUHU21623XXSP,2013-07-08 20:06:00,
2013-07-08 16:11:00,94.7,72.8,30.34,NE,45,0.0,0.0,49,0.00,,,0.00,WUHU21623XXSP,2013-07-08 20:11:00,
2013-07-08 16:16:00,94.2,72.3,30.34,NNE,22,0.0,0.0,49,0.00,,,0.00,WUHU21623XXSP,2013-07-08 20:16:00,
2013-07-08 16:21:00,94.4,73.1,30.34,ENE,67,0.0,0.0,50,0.00,,,0.00,WUHU21623XXSP,2013-07-08 20:21:00,
2013-07-08 16:27:00,94.7,72.8,30.34,ESE,112,0.0,0.0,49,0.00,,,0.00,WUHU21623XXSP,2013-07-08 20:27:00,
2013-07-08 16:32:00,95.6,73.6,30.34,SE,135,0.0,0.0,49,0.00,,,0.00,WUHU21623XXSP,2013-07-08 20:32:00,
2013-07-08 16:37:00,95.6,73.0,30.33,NNW,337,0.0,0.0,48,0.00,,,0.00,WUHU21623XXSP,2013-07-08 20:37:00,
2013-07-08 16:43:00,95.6,72.3,30.33,ESE,112,0.0,0.0,47,0.00,,,0.00,WUHU21623XXSP,2013-07-08 20:43:00,
2013-07-08 16:48:00,96.0,74.0,30.33,SSE,157,0.0,0.0,49,0.00,,,0.00,WUHU21623XXSP,2013-07-08 20:48:00,
2013-07-08 16:54:00,96.3,73.6,30.33,ESE,112,0.0,0.0,48,0.00,,,0.00,WUHU21623XXSP,2013-07-08 20:54:00,
2013-07-08 16:59:00,96.5,73.8,30.33,SSW,202,0.0,0.0,48,0.00,,,0.00,WUHU21623XXSP,2013-07-08 20:59:00,
2013-07-08 17:04:00,96.5,73.8,30.33,WSW,247,0.0,0.0,48,0.00,,,0.00,WUHU21623XXSP,2013-07-08 21:04:00,
2013-07-08 17:09:00,96.3,74.9,30.33,SSE,157,0.0,0.0,50,0.00,,,0.00,WUHU21623XXSP,2013-07-08 21:09:00,
2013-07-08 17:14:00,95.1,75.0,30.33,SSE,157,0.0,0.0,52,0.00,,,0.00,WUHU21623XXSP,2013-07-08 21:14:00,
2013-07-08 17:20:00,94.2,75.8,30.33,SSW,202,0.0,0.0,55,0.00,,,0.00,WUHU21623XXSP,2013-07-08 21:20:00,
2013-07-08 17:25:00,94.2,76.4,30.33,WNW,292,0.0,0.0,56,0.00,,,0.00,WUHU21623XXSP,2013-07-08 21:25:00,
2013-07-08 17:31:00,94.2,76.9,30.33,WNW,292,0.0,0.0,57,0.00,,,0.00,WUHU21623XXSP,2013-07-08 21:31:00,
2013-07-08 17:36:00,94.5,77.2,30.32,NW,315,0.0,0.0,57,0.00,,,0.00,WUHU21623XXSP,2013-07-08 21:36:00,
2013-07-08 17:42:00,94.4,77.1,30.33,West,270,0.0,0.0,57,0.00,,,0.00,WUHU21623XXSP,2013-07-08 21:42:00,
2013-07-08 17:47:00,93.8,76.6,30.33,WNW,292,0.0,0.0,57,0.00,,,0.00,WUHU21623XXSP,2013-07-08 21:47:00,
2013-07-08 17:52:00,93.6,76.4,30.33,WNW,292,0.0,0.0,57,0.00,,,0.00,WUHU21623XXSP,2013-07-08 21:52:00,
2013-07-08 17:58:00,93.6,76.9,30.33,WNW,292,0.0,0.0,58,0.00,,,0.00,WUHU21623XXSP,2013-07-08 21:58:00,
2013-07-08 18:03:00,92.9,76.3,30.33,WNW,292,0.0,0.0,58,0.00,,,0.00,WUHU21623XXSP,2013-07-08 22:03:00,
2013-07-08 18:09:00,91.8,75.7,30.33,WSW,247,0.0,0.0,59,0.00,,,0.00,WUHU21623XXSP,2013-07-08 22:09:00,
2013-07-08 18:14:00,90.9,75.9,30.33,West,270,0.0,0.0,61,0.00,,,0.00,WUHU21623XXSP,2013-07-08 22:14:00,
2013-07-08 18:19:00,90.2,75.7,30.33,WNW,292,0.0,0.0,62,0.00,,,0.00,WUHU21623XXSP,2013-07-08 22:19:00,
2013-07-08 18:24:00,90.2,76.2,30.33,West,270,0.0,0.0,63,0.00,,,0.00,WUHU21623XXSP,2013-07-08 22:24:00,
2013-07-08 18:29:00,89.9,76.4,30.33,West,270,0.0,0.0,64,0.00,,,0.00,WUHU21623XXSP,2013-07-08 22:29:00,
2013-07-08 18:35:00,89.3,75.8,30.32,West,270,0.0,0.0,64,0.00,,,0.00,WUHU21623XXSP,2013-07-08 22:35:00,
2013-07-08 18:40:00,88.8,75.3,30.32,West,270,0.0,0.0,64,0.00,,,0.00,WUHU21623XXSP,2013-07-08 22:40:00,
2013-07-08 18:45:00,88.2,75.2,30.32,WNW,292,0.0,0.0,65,0.00,,,0.00,WUHU21623XXSP,2013-07-08 22:45:00,
2013-07-08 18:50:00,87.3,75.3,30.34,West,270,0.0,0.0,67,0.00,,,0.00,WUHU21623XXSP,2013-07-08 22:50:00,
2013-07-08 18:56:00,86.6,75.5,30.35,ENE,67,0.0,0.0,69,0.02,,,0.02,WUHU21623XXSP,2013-07-08 22:56:00,
2013-07-08 19:01:00,85.0,75.2,30.37,North,0,0.0,0.0,72,0.30,,,0.30,WUHU21623XXSP,2013-07-08 23:01:00,
2013-07-08 19:06:00,82.7,73.4,30.35,NW,315,0.0,0.0,73,0.59,,,0.59,WUHU21623XXSP,2013-07-08 23:06:00,
2013-07-08 19:11:00,80.1,71.6,30.34,West,270,0.0,0.0,75,0.69,,,0.69,WUHU21623XXSP,2013-07-08 23:11:00,
2013-07-08 19:16:00,78.3,71.4,30.33,West,270,0.0,0.0,79,0.71,,,0.71,WUHU21623XXSP,2013-07-08 23:16:00,
2013-07-08 19:22:00,77.6,71.0,30.34,South,180,0.0,0.0,80,0.71,,,0.71,WUHU21623XXSP,2013-07-08 23:22:00,
2013-07-08 19:27:00,77.1,70.9,30.35,WNW,292,0.0,0.0,81,0.71,,,0.71,WUHU21623XXSP,2013-07-08 23:27:00,
2013-07-08 19:32:00,77.1,70.9,30.34,WNW,292,0.0,0.0,81,0.71,,,0.71,WUHU21623XXSP,2013-07-08 23:32:00,
2013-07-08 19:38:00,76.7,70.9,30.34,NW,315,0.0,0.0,82,0.71,,,0.71,WUHU21623XXSP,2013-07-08 23:38:00,
2013-07-08 19:43:00,76.5,70.7,30.36,WSW,247,0.0,0.0,82,0.71,,,0.71,WUHU21623XXSP,2013-07-08 23:43:00,
2013-07-08 19:48:00,76.2,70.4,30.35,West,270,0.0,0.0,82,0.71,,,0.71,WUHU21623XXSP,2013-07-08 23:48:00,
2013-07-08 19:53:00,76.0,70.5,30.35,NW,315,0.0,0.0,83,0.71,,,0.71,WUHU21623XXSP,2013-07-08 23:53:00,
2013-07-08 19:58:00,75.8,70.0,30.36,NW,315,0.0,0.0,82,0.59,,,0.71,WUHU21623XXSP,2013-07-08 23:58:00,
2013-07-08 20:03:00,76.0,70.5,30.36,NW,315,0.0,0.0,83,0.28,,,0.71,WUHU21623XXSP,2013-07-09 00:03:00,
2013-07-08 20:08:00,75.8,70.3,30.36,NNW,337,0.0,0.0,83,0.04,,,0.71,WUHU21623XXSP,2013-07-09 00:08:00,
2013-07-08 20:14:00,75.8,70.7,30.36,NNW,337,0.0,0.0,84,0.00,,,0.71,WUHU21623XXSP,2013-07-09 00:14:00,
2013-07-08 20:20:00,75.8,70.7,30.37,NNW,337,0.0,0.0,84,0.00,,,0.71,WUHU21623XXSP,2013-07-09 00:20:00,
2013-07-08 20:25:00,75.8,71.0,30.37,NNW,337,0.0,0.0,85,0.00,,,0.71,WUHU21623XXSP,2013-07-09 00:25:00,
2013-07-08 20:30:00,75.8,71.0,30.37,NNW,337,0.0,0.0,85,0.00,,,0.71,WUHU21623XXSP,2013-07-09 00:30:00,
2013-07-08 20:36:00,75.8,71.0,30.37,NNW,337,0.0,0.0,85,0.00,,,0.71,WUHU21623XXSP,2013-07-09 00:36:00,
2013-07-08 20:41:00,75.8,71.0,30.37,NNW,337,0.0,0.0,85,0.00,,,0.71,WUHU21623XXSP,2013-07-09 00:41:00,
2013-07-08 20:46:00,75.8,71.0,30.37,NNW,337,0.0,0.0,85,0.00,,,0.71,WUHU21623XXSP,2013-07-09 00:46:00,
2013-07-08 20:51:00,76.0,71.5,30.37,NNW,337,0.0,0.0,86,0.00,,,0.71,WUHU21623XXSP,2013-07-09 00:51:00,
2013-07-08 20:56:00,76.2,71.7,30.37,NNW,337,0.0,0.0,86,0.00,,,0.71,WUHU21623XXSP,2013-07-09 00:56:00,
2013-07-08 21:01:00,76.2,72.1,30.37,WNW,292,0.0,0.0,87,0.00,,,0.71,WUHU21623XXSP,2013-07-09 01:01:00,
2013-07-08 21:06:00,76.4,72.3,30.37,WNW,292,0.0,0.0,87,0.00,,,0.71,WUHU21623XXSP,2013-07-09 01:06:00,
2013-07-08 21:11:00,76.5,72.4,30.38,WNW,292,0.0,0.0,87,0.00,,,0.71,WUHU21623XXSP,2013-07-09 01:11:00,
2013-07-08 21:17:00,76.5,72.4,30.38,WNW,292,0.0,0.0,87,0.00,,,0.71,WUHU21623XXSP,2013-07-09 01:17:00,
2013-07-08 21:22:00,76.5,72.4,30.39,WNW,292,0.0,0.0,87,0.00,,,0.71,WUHU21623XXSP,2013-07-09 01:22:00,
2013-07-08 21:28:00,76.5,72.4,30.39,WNW,292,0.0,0.0,87,0.00,,,0.71,WUHU21623XXSP,2013-07-09 01:28:00,
2013-07-08 21:33:00,76.5,72.4,30.39,WNW,292,0.0,0.0,87,0.00,,,0.71,WUHU21623XXSP,2013-07-09 01:33:00,
2013-07-08 21:38:00,76.5,72.4,30.39,WNW,292,0.0,0.0,87,0.00,,,0.71,WUHU21623XXSP,2013-07-09 01:38:00,
2013-07-08 21:43:00,76.7,72.6,30.39,WNW,292,0.0,0.0,87,0.00,,,0.71,WUHU21623XXSP,2013-07-09 01:43:00,
2013-07-08 21:48:00,76.7,72.6,30.39,WNW,292,0.0,0.0,87,0.00,,,0.71,WUHU21623XXSP,2013-07-09 01:48:00,
2013-07-08 21:53:00,76.7,72.6,30.40,WNW,292,0.0,0.0,87,0.00,,,0.71,WUHU21623XXSP,2013-07-09 01:53:00,
2013-07-08 21:59:00,76.7,72.9,30.39,WNW,292,0.0,0.0,88,0.00,,,0.71,WUHU21623XXSP,2013-07-09 01:59:00,
2013-07-08 22:04:00,76.7,72.9,30.39,WNW,292,0.0,0.0,88,0.00,,,0.71,WUHU21623XXSP,2013-07-09 02:04:00,
2013-07-08 22:10:00,76.7,72.9,30.39,WNW,292,0.0,0.0,88,0.00,,,0.71,WUHU21623XXSP,2013-07-09 02:10:00,
2013-07-08 22:15:00,76.7,72.9,30.39,WNW,292,0.0,0.0,88,0.00,,,0.71,WUHU21623XXSP,2013-07-09 02:15:00,
2013-07-08 22:20:00,76.7,72.9,30.40,WNW,292,0.0,0.0,88,0.00,,,0.71,WUHU21623XXSP,2013-07-09 02:20:00,
2013-07-08 22:25:00,76.7,72.9,30.40,WNW,292,0.0,0.0,88,0.00,,,0.71,WUHU21623XXSP,2013-07-09 02:25:00,
2013-07-08 22:30:00,76.7,72.9,30.40,WNW,292,0.0,0.0,88,0.00,,,0.71,WUHU21623XXSP,2013-07-09 02:30:00,
2013-07-08 22:35:00,76.7,73.2,30.40,WNW,292,0.0,0.0,89,0.00,,,0.71,WUHU21623XXSP,2013-07-09 02:35:00,
2013-07-08 22:41:00,76.7,73.2,30.41,WNW,292,0.0,0.0,89,0.00,,,0.71,WUHU21623XXSP,2013-07-09 02:41:00,
2013-07-08 22:46:00,76.7,73.2,30.41,WNW,292,0.0,0.0,89,0.00,,,0.71,WUHU21623XXSP,2013-07-09 02:46:00,
2013-07-08 22:51:00,76.7,73.2,30.41,WNW,292,0.0,0.0,89,0.00,,,0.71,WUHU21623XXSP,2013-07-09 02:51:00,
2013-07-08 22:56:00,76.7,73.2,30.41,WNW,292,0.0,0.0,89,0.00,,,0.71,WUHU21623XXSP,2013-07-09 02:56:00,
2013-07-08 23:01:00,76.7,73.2,30.41,WNW,292,0.0,0.0,89,0.00,,,0.71,WUHU21623XXSP,2013-07-09 03:01:00,
2013-07-08 23:06:00,76.7,73.2,30.41,WNW,292,0.0,0.0,89,0.00,,,0.71,WUHU21623XXSP,2013-07-09 03:06:00,
2013-07-08 23:11:00,76.7,73.2,30.41,WNW,292,0.0,0.0,89,0.00,,,0.71,WUHU21623XXSP,2013-07-09 03:11:00,
2013-07-08 23:17:00,76.7,73.2,30.41,WNW,292,0.0,0.0,89,0.00,,,0.71,WUHU21623XXSP,2013-07-09 03:17:00,
2013-07-08 23:22:00,76.7,73.5,30.41,WNW,292,0.0,0.0,90,0.00,,,0.71,WUHU21623XXSP,2013-07-09 03:22:00,
2013-07-08 23:27:00,76.7,73.5,30.41,WNW,292,0.0,0.0,90,0.00,,,0.71,WUHU21623XXSP,2013-07-09 03:27:00,
2013-07-08 23:32:00,76.9,73.7,30.41,WNW,292,0.0,0.0,90,0.00,,,0.71,WUHU21623XXSP,2013-07-09 03:32:00,
2013-07-08 23:38:00,76.9,73.7,30.41,WNW,292,0.0,0.0,90,0.00,,,0.71,WUHU21623XXSP,2013-07-09 03:38:00,
2013-07-08 23:43:00,76.9,73.7,30.41,WNW,292,0.0,0.0,90,0.00,,,0.71,WUHU21623XXSP,2013-07-09 03:43:00,
2013-07-08 23:48:00,76.9,73.7,30.42,WNW,292,0.0,0.0,90,0.00,,,0.71,WUHU21623XXSP,2013-07-09 03:48:00,
2013-07-08 23:53:00,76.9,73.7,30.41,WNW,292,0.0,0.0,90,0.00,,,0.71,WUHU21623XXSP,2013-07-09 03:53:00,
2013-07-08 23:58:00,76.9,73.7,30.41,WNW,292,0.0,0.0,90,0.00,,,0.71,WUHU21623XXSP,2013-07-09 03:58:00,